createdAt,value
2023-01-11T00:02:05.967Z,20.27
2023-01-11T00:07:09.477Z,18.30
2023-01-11T00:12:14.228Z,20.92
2023-01-11T00:17:19.147Z,20.63
2023-01-11T00:22:22.826Z,14.07
2023-01-11T00:27:26.240Z,19.13
2023-01-11T00:32:30.940Z,15.52
2023-01-11T00:37:36.197Z,15.63
2023-01-11T00:42:57.091Z,11.43
2023-01-11T00:48:02.409Z,16.25
2023-01-11T00:53:06.725Z,13.10
2023-01-11T00:58:10.338Z,12.18
2023-01-11T01:03:15.111Z,13.85
2023-01-11T01:08:18.602Z,10.95
2023-01-11T01:13:39.260Z,13.15
2023-01-11T01:18:44.562Z,11.48
2023-01-11T01:23:47.966Z,10.60
2023-01-11T01:28:51.461Z,12.57
2023-01-11T01:33:57.168Z,12.40
2023-01-11T01:39:01.483Z,14.00
2023-01-11T01:44:26.451Z,10.77
2023-01-11T01:49:32.011Z,11.98
2023-01-11T01:54:40.731Z,15.18
2023-01-11T01:59:44.298Z,16.48
2023-01-11T02:04:50.036Z,13.80
2023-01-11T02:09:59.094Z,14.45
2023-01-11T02:15:03.486Z,10.90
2023-01-11T02:20:36.268Z,16.80
2023-01-11T02:26:15.576Z,10.07
2023-01-11T02:31:29.997Z,8.98
2023-01-11T02:36:40.333Z,12.20
2023-01-11T02:42:06.388Z,7.55
2023-01-11T02:47:18.375Z,11.05
2023-01-11T02:52:27.896Z,8.95
2023-01-11T02:57:34.302Z,9.73
2023-01-11T03:02:39.348Z,11.73
2023-01-11T03:07:58.280Z,10.98
2023-01-11T03:13:14.425Z,12.55
2023-01-11T03:18:38.359Z,13.65
2023-01-11T03:23:49.899Z,13.00
2023-01-11T03:28:59.188Z,11.77
2023-01-11T03:34:14.146Z,14.05
2023-01-11T03:39:25.119Z,15.90
2023-01-11T03:44:32.129Z,17.30
2023-01-11T03:49:41.463Z,13.15
2023-01-11T03:54:45.720Z,11.93
2023-01-11T03:59:50.516Z,12.63
2023-01-11T04:04:55.478Z,10.90
2023-01-11T04:09:59.736Z,10.95
2023-01-11T04:15:05.163Z,14.85
2023-01-11T04:20:12.151Z,14.75
2023-01-11T04:25:15.678Z,18.55
2023-01-11T04:30:19.435Z,11.18
2023-01-11T04:35:24.381Z,11.90
2023-01-11T04:40:28.057Z,9.75
2023-01-11T04:45:31.835Z,9.18
2023-01-11T04:50:36.676Z,8.98
2023-01-11T04:55:40.664Z,12.43
2023-01-11T05:00:44.505Z,12.32
2023-01-11T05:05:57.237Z,12.23
2023-01-11T05:11:02.309Z,7.40
2023-01-11T05:16:06.425Z,7.55
2023-01-11T05:21:12.883Z,10.35
2023-01-11T05:26:18.659Z,7.88
2023-01-11T05:31:22.326Z,9.73
2023-01-11T05:36:29.035Z,8.85
2023-01-11T05:41:32.938Z,9.07
2023-01-11T05:46:38.833Z,5.28
2023-01-11T05:51:44.103Z,5.38
2023-01-11T05:56:47.502Z,6.22
2023-01-11T06:01:51.209Z,5.57
2023-01-11T06:06:56.138Z,7.25
2023-01-11T06:11:59.594Z,7.03
2023-01-11T06:17:03.211Z,8.45
2023-01-11T06:22:08.066Z,10.25
2023-01-11T06:27:11.488Z,7.15
2023-01-11T06:32:14.872Z,9.52
2023-01-11T06:37:19.865Z,10.93
2023-01-11T06:42:23.282Z,20.70
2023-01-11T06:47:26.985Z,11.35
2023-01-11T06:52:31.774Z,10.02
2023-01-11T06:57:35.158Z,9.43
2023-01-11T07:02:38.520Z,5.30
2023-01-11T07:07:44.473Z,4.80
2023-01-11T07:12:48.160Z,5.35
2023-01-11T07:17:55.675Z,6.72
2023-01-11T07:23:01.661Z,4.15
2023-01-11T07:28:07.984Z,5.40
2023-01-11T07:33:11.845Z,6.60
2023-01-11T07:38:16.646Z,3.90
2023-01-11T07:43:23.183Z,3.78
2023-01-11T07:48:27.467Z,5.90
2023-01-11T07:53:32.289Z,6.22
2023-01-11T07:58:35.662Z,7.80
2023-01-11T08:03:39.479Z,5.60
2023-01-11T08:08:44.431Z,6.97
2023-01-11T08:14:05.617Z,5.65
2023-01-11T08:19:09.008Z,5.60
2023-01-11T08:24:13.937Z,6.97
2023-01-11T08:29:17.340Z,7.30
2023-01-11T08:34:20.750Z,7.15
2023-01-11T08:39:28.314Z,5.63
2023-01-11T08:44:35.196Z,7.50
2023-01-11T08:49:39.196Z,16.35
2023-01-11T08:54:44.084Z,9.20
2023-01-11T08:59:47.477Z,7.35
2023-01-11T09:04:51.038Z,7.82
2023-01-11T09:09:55.817Z,5.97
2023-01-11T09:14:59.837Z,7.35
2023-01-11T09:20:03.771Z,7.97
2023-01-11T09:25:10.160Z,9.07
2023-01-11T09:30:16.833Z,10.27
2023-01-11T09:35:20.746Z,7.45
2023-01-11T09:40:38.614Z,8.23
2023-01-11T09:45:46.759Z,7.88
2023-01-11T09:50:50.454Z,9.00
2023-01-11T09:55:58.154Z,9.18
2023-01-11T10:01:08.468Z,10.55
2023-01-11T10:06:18.568Z,8.43
2023-01-11T10:18:26.026Z,10.82
2023-01-11T10:22:36.492Z,8.65
2023-01-11T10:27:49.048Z,9.10
2023-01-11T10:33:10.177Z,8.20
2023-01-11T10:38:40.880Z,9.48
2023-01-11T10:43:50.498Z,7.13
2023-01-11T10:49:03.748Z,9.13
2023-01-11T10:54:18.061Z,8.93
2023-01-11T10:59:43.675Z,10.15
2023-01-11T11:05:01.650Z,8.25
2023-01-11T11:10:11.175Z,6.85
2023-01-11T11:15:21.853Z,5.60
2023-01-11T11:20:29.685Z,6.90
2023-01-11T11:25:37.447Z,10.75
2023-01-11T11:30:45.005Z,6.55
2023-01-11T11:35:57.714Z,7.75
2023-01-11T11:41:07.874Z,9.60
2023-01-11T11:46:27.550Z,7.40
2023-01-11T11:51:31.247Z,6.05
2023-01-11T11:56:37.726Z,10.68
2023-01-11T12:01:47.174Z,7.13
2023-01-11T12:07:05.932Z,6.13
2023-01-11T12:12:17.426Z,7.45
2023-01-11T12:17:25.829Z,3.80
2023-01-11T12:22:30.227Z,5.47
2023-01-11T12:27:42.852Z,6.05
2023-01-11T12:33:20.951Z,4.97
2023-01-11T12:38:40.905Z,5.63
2023-01-11T12:43:56.277Z,7.18
2023-01-11T12:49:18.602Z,8.18
2023-01-11T12:54:48.416Z,5.88
2023-01-11T13:00:11.063Z,8.15
2023-01-11T13:05:24.593Z,6.82
2023-01-11T13:10:37.804Z,7.35
2023-01-11T13:15:49.393Z,7.20
2023-01-11T13:21:02.152Z,9.02
2023-01-11T13:26:17.236Z,6.22
2023-01-11T13:31:21.286Z,6.00
2023-01-11T13:36:31.382Z,5.00
2023-01-11T13:41:42.513Z,7.75
2023-01-11T13:46:58.827Z,9.63
2023-01-11T13:52:09.486Z,8.85
2023-01-11T13:57:21.230Z,5.30
2023-01-11T14:02:35.165Z,7.82
2023-01-11T14:07:56.019Z,5.60
2023-01-11T14:13:38.900Z,6.68
2023-01-11T14:18:49.241Z,5.78
2023-01-11T14:23:55.930Z,6.32
2023-01-11T14:29:15.620Z,6.75
2023-01-11T14:34:48.546Z,6.05
2023-01-11T14:40:21.929Z,9.57
2023-01-11T14:45:41.875Z,6.90
2023-01-11T14:50:59.193Z,9.60
2023-01-11T14:56:03.969Z,5.95
2023-01-11T15:01:11.953Z,10.35
2023-01-11T15:06:18.843Z,8.07
2023-01-11T15:11:39.095Z,11.05
2023-01-11T15:17:08.280Z,10.38
2023-01-11T15:22:29.253Z,9.32
2023-01-11T15:27:36.827Z,7.78
2023-01-11T15:32:41.485Z,9.65
2023-01-11T15:37:57.790Z,8.88
2023-01-11T15:43:33.465Z,8.75
2023-01-11T15:48:52.466Z,9.23
2023-01-11T15:54:19.763Z,11.13
2023-01-11T16:00:00.864Z,8.25
2023-01-11T16:05:17.037Z,9.60
2023-01-11T16:10:36.831Z,8.68
2023-01-11T16:15:52.289Z,7.30
2023-01-11T16:21:04.629Z,9.50
2023-01-11T16:26:08.672Z,12.13
2023-01-11T16:31:12.387Z,6.60
2023-01-11T16:36:21.142Z,7.30
2023-01-11T16:41:27.065Z,6.15
2023-01-11T16:47:07.161Z,8.05
2023-01-11T16:52:48.234Z,8.05
2023-01-11T16:57:55.405Z,6.95
2023-01-11T17:03:06.702Z,6.80
2023-01-11T17:14:08.553Z,7.40
2023-01-11T17:19:17.645Z,10.07
2023-01-11T17:24:24.918Z,7.25
2023-01-11T17:29:32.627Z,8.55
2023-01-11T17:34:38.261Z,11.05
2023-01-11T17:39:47.550Z,6.40
2023-01-11T17:45:11.538Z,8.23
2023-01-11T17:50:22.902Z,7.53
2023-01-11T17:55:28.600Z,7.75
2023-01-11T18:00:34.061Z,7.70
2023-01-11T18:05:38.672Z,6.03
2023-01-11T18:10:53.965Z,7.60
2023-01-11T18:16:00.440Z,7.35
2023-01-11T18:21:03.878Z,6.30
2023-01-11T18:26:27.631Z,6.78
2023-01-11T18:36:36.285Z,9.57
2023-01-11T18:41:58.150Z,7.97
2023-01-11T18:47:03.386Z,9.55
2023-01-11T18:52:06.845Z,10.73
2023-01-11T18:57:10.558Z,10.65
2023-01-11T19:02:25.317Z,10.77
2023-01-11T19:07:29.152Z,13.00
2023-01-11T19:12:32.624Z,12.10
2023-01-11T19:17:37.954Z,13.98
2023-01-11T19:22:42.208Z,11.52
2023-01-11T19:27:45.756Z,11.13
2023-01-11T19:32:53.594Z,10.88
2023-01-11T19:37:57.633Z,12.00
2023-01-11T19:43:01.230Z,10.25
2023-01-11T19:48:06.832Z,9.30
2023-01-11T19:53:10.487Z,10.65
2023-01-11T19:58:13.938Z,11.77
2023-01-11T20:03:18.715Z,11.40
2023-01-11T20:08:22.528Z,11.98
2023-01-11T20:13:26.306Z,15.00
2023-01-11T20:18:31.129Z,18.73
2023-01-11T20:23:36.669Z,22.77
2023-01-11T20:28:40.734Z,24.67
2023-01-11T20:34:04.394Z,18.83
2023-01-11T20:39:08.509Z,11.13
2023-01-11T20:44:12.911Z,17.17
2023-01-11T20:49:18.564Z,13.52
2023-01-11T20:54:22.223Z,10.70
2023-01-11T20:59:25.748Z,11.85
2023-01-11T21:04:31.314Z,11.75
2023-01-11T21:09:36.637Z,8.05
2023-01-11T21:14:40.211Z,10.50
2023-01-11T21:19:45.068Z,7.65
2023-01-11T21:24:48.768Z,7.10
2023-01-11T21:29:52.468Z,10.02
2023-01-11T21:34:57.284Z,6.25
2023-01-11T21:40:00.760Z,6.40
2023-01-11T21:45:08.707Z,6.45
2023-01-11T21:50:13.992Z,9.05
2023-01-11T21:55:17.887Z,6.50
2023-01-11T22:00:22.028Z,7.40
2023-01-11T22:05:26.857Z,7.43
2023-01-11T22:10:30.992Z,6.45
2023-01-11T22:15:34.651Z,6.40
2023-01-11T22:20:40.775Z,9.27
2023-01-11T22:25:44.310Z,9.15
2023-01-11T22:30:47.934Z,7.00
2023-01-11T22:35:56.652Z,5.95
2023-01-11T22:41:01.173Z,6.88
2023-01-11T22:46:04.745Z,8.32
2023-01-11T22:51:10.845Z,6.43
2023-01-11T22:56:18.651Z,6.78
2023-01-11T23:01:23.654Z,6.32
2023-01-11T23:06:30.685Z,8.32
2023-01-11T23:11:56.407Z,6.88
2023-01-11T23:17:01.390Z,6.50
2023-01-11T23:22:06.807Z,6.38
2023-01-11T23:27:10.595Z,6.30
2023-01-11T23:32:14.677Z,6.43
2023-01-11T23:37:19.422Z,6.45
2023-01-11T23:42:28.849Z,7.45
2023-01-11T23:47:32.604Z,7.72
2023-01-11T23:52:37.346Z,7.70
2023-01-11T23:58:01.308Z,7.60
